Terminal Aerodrome Forecast
Issued by NWS

Home | Current Version | Previous Version | Text Only | Print | Product List | Glossary On
Versions: 1 2 3 4 5 6 7 8 9 10 11 12 13 14 15 16 17 18 19 20 21 22 23 24 25 26 27 28 29 30 31 32 33 34 35 36 37 38 39 40
000
FTUS45 KCYS 271124
TAFRWL
TAF
KRWL 271124Z 2712/2812 20006KT P6SM SKC
     FM271600 23018G30KT P6SM SKC
     FM280200 24015KT P6SM BKN050
     FM280600 24016KT 3SM BR OVC025=

USA.gov is the U.S. government's official web portal to all federal, state and local government web resources and services.